Time;durP1;ratioP1;P1;durP2;ratioP2;P2;SDS_P1;SDS_P2;PMS_P1;PMS_P2;Temp;Humidity;BMP_temperature;BMP_pressure;BME280_temperature;BME280_humidity;BME280_pressure;Samples;Min_cycle;Max_cycle;Signal;HPM_P1;HPM_P2
2022/04/27 00:00:16;;;;;;;5.60;3.90;;;7.70;99.90;;;;;;5012512;28;20243;-75
2022/04/27 00:03:06;;;;;;;8.83;4.27;;;7.60;99.90;;;;;;5013096;28;20271;-73
2022/04/27 00:05:52;;;;;;;6.30;3.87;;;7.60;99.90;;;;;;5011718;28;20246;-74
2022/04/27 00:09:05;;;;;;;7.10;3.93;;;7.50;99.90;;;;;;5008355;28;20208;-74
2022/04/27 00:11:55;;;;;;;4.33;3.93;;;7.50;99.90;;;;;;5001912;28;20204;-75
2022/04/27 00:14:40;;;;;;;10.30;4.13;;;7.40;99.90;;;;;;5006219;28;20247;-75
2022/04/27 00:17:45;;;;;;;4.57;3.80;;;7.30;99.90;;;;;;5007062;28;20203;-75
2022/04/27 00:20:53;;;;;;;7.80;4.30;;;7.30;99.90;;;;;;5019923;28;20215;-75
2022/04/27 00:23:58;;;;;;;8.57;4.37;;;7.20;99.90;;;;;;5012380;23;20276;-74
2022/04/27 00:26:44;;;;;;;7.77;4.87;;;7.20;99.90;;;;;;4968696;28;20916;-74
2022/04/27 00:29:33;;;;;;;9.97;4.87;;;7.10;99.90;;;;;;4973082;28;20213;-75
2022/04/27 00:32:18;;;;;;;8.27;4.67;;;7.10;99.90;;;;;;4971895;28;20193;-75
2022/04/27 00:35:05;;;;;;;9.27;5.07;;;7.00;99.90;;;;;;4972252;28;20205;-75
2022/04/27 00:37:50;;;;;;;6.67;4.17;;;7.00;99.90;;;;;;4970697;28;20529;-75
2022/04/27 00:40:34;;;;;;;7.20;4.80;;;6.90;99.90;;;;;;4969220;28;20288;-76
2022/04/27 00:43:48;;;;;;;7.23;4.83;;;6.90;99.90;;;;;;4972232;28;20244;-75
2022/04/27 00:46:32;;;;;;;7.43;4.00;;;6.90;99.90;;;;;;4971207;28;20214;-74
2022/04/27 00:49:17;;;;;;;8.00;4.87;;;6.90;99.90;;;;;;4971316;28;20201;-75
2022/04/27 00:52:01;;;;;;;5.83;4.33;;;6.90;99.90;;;;;;4972072;28;20551;-75
2022/04/27 00:54:53;;;;;;;6.83;4.93;;;6.80;99.90;;;;;;4972639;28;20225;-76
2022/04/27 00:57:46;;;;;;;7.77;5.03;;;6.80;99.90;;;;;;4970266;28;20233;-75
2022/04/27 01:00:31;;;;;;;10.53;4.53;;;6.80;99.90;;;;;;4970236;28;20217;-77
2022/04/27 01:03:54;;;;;;;11.60;5.17;;;6.80;99.90;;;;;;4970451;28;20324;-75
2022/04/27 01:06:41;;;;;;;11.70;4.97;;;6.70;99.90;;;;;;4973570;28;20613;-75
2022/04/27 01:09:26;;;;;;;8.60;4.87;;;6.70;99.90;;;;;;4975738;28;20230;-76
2022/04/27 01:12:10;;;;;;;8.05;6.18;;;6.70;99.90;;;;;;4980713;28;20397;-75
2022/04/27 01:14:55;;;;;;;10.93;5.37;;;6.60;99.90;;;;;;4980663;28;20590;-75
2022/04/27 01:17:40;;;;;;;7.40;5.30;;;6.60;99.90;;;;;;4980005;28;20197;-75
2022/04/27 01:20:24;;;;;;;6.50;4.80;;;6.50;99.90;;;;;;4993129;28;20275;-76
2022/04/27 01:23:09;;;;;;;9.33;6.00;;;6.50;99.90;;;;;;4975462;28;20222;-76
2022/04/27 01:25:56;;;;;;;8.27;5.70;;;6.50;99.90;;;;;;4979680;28;20194;-76
2022/04/27 01:28:40;;;;;;;7.57;5.27;;;6.40;99.90;;;;;;4988133;28;20225;-76
2022/04/27 01:31:25;;;;;;;7.60;5.23;;;6.40;99.90;;;;;;4980048;28;20216;-75
2022/04/27 01:34:09;;;;;;;7.37;5.53;;;6.30;99.90;;;;;;4986331;28;20192;-75
2022/04/27 01:37:59;;;;;;;5.67;5.07;;;6.20;99.90;;;;;;4959711;28;20186;-75
2022/04/27 01:39:58;;;;;;;7.77;5.83;;;6.10;99.90;;;;;;4976936;28;20260;-76
2022/04/27 01:42:42;;;;;;;10.00;6.30;;;6.10;99.90;;;;;;4982528;28;20276;-76
2022/04/27 01:45:26;;;;;;;9.90;6.33;;;6.10;99.90;;;;;;4998367;28;20272;-75
2022/04/27 01:48:12;;;;;;;10.47;6.10;;;6.00;99.90;;;;;;4997151;28;20286;-75
2022/04/27 01:50:56;;;;;;;11.10;5.70;;;6.00;99.90;;;;;;4974218;28;20255;-75
2022/04/27 01:56:45;;;;;;;9.23;5.40;;;5.90;99.90;;;;;;4972252;28;20284;-76
2022/04/27 01:59:30;;;;;;;8.40;5.70;;;5.90;99.90;;;;;;4959583;29;20178;-75
2022/04/27 02:02:14;;;;;;;7.77;5.80;;;5.80;99.90;;;;;;4959457;28;20205;-74
2022/04/27 02:04:58;;;;;;;10.37;6.03;;;5.80;99.90;;;;;;4985339;28;20189;-74
2022/04/27 02:07:43;;;;;;;6.77;5.90;;;5.70;99.90;;;;;;4974674;28;20244;-75
2022/04/27 02:10:28;;;;;;;9.93;6.63;;;5.60;99.90;;;;;;4988824;28;20275;-75
2022/04/27 02:13:12;;;;;;;10.20;5.97;;;5.60;99.90;;;;;;4984754;28;20189;-74
2022/04/27 02:15:57;;;;;;;11.13;6.73;;;5.60;99.90;;;;;;4981040;28;20252;-75
2022/04/27 02:18:41;;;;;;;10.50;5.93;;;5.50;99.90;;;;;;4977310;28;20200;-75
2022/04/27 02:21:26;;;;;;;7.80;5.47;;;5.50;99.90;;;;;;4975857;28;20248;-76
2022/04/27 02:24:11;;;;;;;9.40;6.00;;;5.50;99.90;;;;;;4962717;28;20249;-75
2022/04/27 02:26:55;;;;;;;8.57;6.00;;;5.50;99.90;;;;;;4977382;28;20256;-75
2022/04/27 02:29:41;;;;;;;9.07;6.07;;;5.40;99.90;;;;;;4976596;28;20264;-75
2022/04/27 02:32:25;;;;;;;10.07;6.30;;;5.40;99.90;;;;;;4978612;28;20193;-75
2022/04/27 02:35:10;;;;;;;9.43;6.57;;;5.40;99.90;;;;;;4976619;28;20204;-75
2022/04/27 02:37:55;;;;;;;10.90;6.80;;;5.30;99.90;;;;;;4958391;29;20276;-75
2022/04/27 02:40:39;;;;;;;9.13;6.20;;;5.30;99.90;;;;;;4958001;29;20218;-75
2022/04/27 02:43:24;;;;;;;8.80;6.87;;;5.20;99.90;;;;;;4958290;29;20182;-75
2022/04/27 02:46:08;;;;;;;9.60;6.00;;;5.20;99.90;;;;;;4957668;29;20186;-75
2022/04/27 02:51:56;;;;;;;9.80;6.13;;;5.10;99.90;;;;;;4980761;28;20208;-74
2022/04/27 02:54:40;;;;;;;7.93;6.10;;;5.10;99.90;;;;;;4977135;28;20184;-75
2022/04/27 02:57:25;;;;;;;8.40;6.13;;;5.10;99.90;;;;;;4977214;28;20228;-75
2022/04/27 03:00:12;;;;;;;9.00;6.10;;;5.00;99.90;;;;;;4973385;28;20357;-75
2022/04/27 03:02:58;;;;;;;9.03;6.10;;;4.90;99.90;;;;;;4973990;28;20196;-75
2022/04/27 03:05:43;;;;;;;9.17;6.40;;;4.90;99.90;;;;;;4978181;28;20203;-75
2022/04/27 03:08:28;;;;;;;9.27;6.70;;;4.90;99.90;;;;;;4977345;28;20306;-75
2022/04/27 03:11:12;;;;;;;11.47;6.63;;;4.80;99.90;;;;;;4983393;28;20239;-75
2022/04/27 03:13:56;;;;;;;8.97;6.67;;;4.80;99.90;;;;;;4977275;28;20183;-75
2022/04/27 03:16:41;;;;;;;8.50;6.53;;;4.80;99.90;;;;;;4977007;28;20670;-74
2022/04/27 03:19:25;;;;;;;8.40;6.87;;;4.80;99.90;;;;;;4977087;28;20250;-76
2022/04/27 03:22:10;;;;;;;11.60;7.30;;;4.80;99.90;;;;;;4976718;28;20209;-76
2022/04/27 03:24:54;;;;;;;11.27;6.07;;;4.80;99.90;;;;;;4977739;28;20213;-74
2022/04/27 03:27:38;;;;;;;7.93;6.03;;;4.70;99.90;;;;;;4979508;28;20211;-74
2022/04/27 03:30:22;;;;;;;11.27;6.63;;;4.70;99.90;;;;;;4980391;28;20263;-75
2022/04/27 03:33:06;;;;;;;10.53;6.63;;;4.60;99.90;;;;;;4975894;28;20199;-74
2022/04/27 03:35:50;;;;;;;9.73;6.20;;;4.60;99.90;;;;;;4976394;28;20181;-74
2022/04/27 03:38:35;;;;;;;8.33;6.27;;;4.60;99.90;;;;;;4976804;28;20183;-75
2022/04/27 03:41:22;;;;;;;10.10;6.97;;;4.50;99.90;;;;;;4976115;28;20220;-75
2022/04/27 03:44:06;;;;;;;9.23;6.67;;;4.60;99.90;;;;;;4976069;28;20252;-76
2022/04/27 03:46:51;;;;;;;8.20;6.37;;;4.50;99.90;;;;;;4969759;28;20243;-74
2022/04/27 03:49:35;;;;;;;9.27;6.80;;;4.50;99.90;;;;;;4968751;28;20230;-75
2022/04/27 03:52:20;;;;;;;9.13;6.63;;;4.40;99.90;;;;;;4976228;28;20331;-73
2022/04/27 03:55:04;;;;;;;9.03;7.30;;;4.40;99.90;;;;;;4976883;28;20175;-76
2022/04/27 03:57:49;;;;;;;7.03;6.30;;;4.40;99.90;;;;;;4975921;28;20201;-75
2022/04/27 04:00:34;;;;;;;15.80;7.50;;;4.40;99.90;;;;;;4975758;28;20260;-75
2022/04/27 04:03:18;;;;;;;10.57;7.27;;;4.40;99.90;;;;;;4957190;28;20204;-75
2022/04/27 04:06:03;;;;;;;10.37;6.67;;;4.30;99.90;;;;;;4985787;28;20201;-74
2022/04/27 04:08:47;;;;;;;11.70;7.07;;;4.30;99.90;;;;;;4979399;28;20246;-76
2022/04/27 04:11:31;;;;;;;7.67;6.27;;;4.20;99.90;;;;;;4980839;28;20265;-75
2022/04/27 04:14:15;;;;;;;9.10;7.07;;;4.20;99.90;;;;;;4982752;28;20200;-75
2022/04/27 04:17:00;;;;;;;10.03;7.10;;;4.10;99.90;;;;;;4970929;28;20220;-75
2022/04/27 04:19:44;;;;;;;11.63;7.23;;;4.10;99.90;;;;;;4969179;28;20226;-76
2022/04/27 04:22:29;;;;;;;11.00;7.23;;;4.10;99.90;;;;;;4975945;28;20194;-76
2022/04/27 04:28:29;;;;;;;9.87;7.60;;;4.10;99.90;;;;;;4976240;28;20216;-74
2022/04/27 04:31:14;;;;;;;14.57;7.57;;;4.00;99.90;;;;;;4973287;28;20286;-74
2022/04/27 04:33:58;;;;;;;11.70;7.93;;;4.00;99.90;;;;;;4969304;28;20237;-76
2022/04/27 04:36:42;;;;;;;14.03;8.50;;;4.00;99.90;;;;;;4987770;28;20188;-74
2022/04/27 04:39:26;;;;;;;15.90;8.47;;;4.00;99.90;;;;;;4974642;28;20249;-74
2022/04/27 04:42:11;;;;;;;15.57;8.17;;;4.00;99.90;;;;;;4972512;28;20553;-75
2022/04/27 04:44:56;;;;;;;13.40;8.73;;;4.00;99.90;;;;;;4973860;28;20201;-74
2022/04/27 04:47:44;;;;;;;15.07;8.80;;;4.00;99.90;;;;;;4975623;28;20374;-75
2022/04/27 04:50:29;;;;;;;14.17;8.43;;;4.00;99.90;;;;;;4975840;28;20242;-75
2022/04/27 04:53:13;;;;;;;15.23;9.00;;;4.00;99.90;;;;;;4979429;28;20681;-76
2022/04/27 04:55:57;;;;;;;13.17;8.20;;;4.00;99.90;;;;;;4975353;28;20278;-76
2022/04/27 04:58:41;;;;;;;13.33;8.60;;;3.90;99.90;;;;;;4974569;28;20290;-76
2022/04/27 05:01:25;;;;;;;10.27;8.50;;;4.00;99.90;;;;;;4978545;28;20698;-76
2022/04/27 05:04:10;;;;;;;14.07;9.67;;;4.00;99.90;;;;;;4978399;28;20215;-75
2022/04/27 05:06:54;;;;;;;14.53;9.43;;;4.00;99.90;;;;;;4977077;28;20232;-76
2022/04/27 05:09:39;;;;;;;12.00;9.97;;;4.00;99.90;;;;;;4971380;28;20247;-74
2022/04/27 05:12:24;;;;;;;14.37;9.60;;;4.10;99.90;;;;;;4974222;28;20601;-75
2022/04/27 05:15:09;;;;;;;14.33;10.87;;;4.20;99.90;;;;;;4971594;28;20207;-75
2022/04/27 05:17:54;;;;;;;14.67;10.57;;;4.20;99.90;;;;;;4961957;28;20230;-75
2022/04/27 05:20:38;;;;;;;15.50;10.40;;;4.30;99.90;;;;;;4975404;28;20241;-76
2022/04/27 05:23:23;;;;;;;14.97;10.80;;;4.30;99.90;;;;;;4981876;28;20216;-75
2022/04/27 05:26:08;;;;;;;17.20;11.03;;;4.30;99.90;;;;;;4971674;28;20281;-75
2022/04/27 05:31:55;;;;;;;17.83;11.00;;;4.40;99.90;;;;;;4974594;28;20336;-75
2022/04/27 05:34:40;;;;;;;14.57;10.47;;;4.50;99.90;;;;;;4968773;28;20248;-75
2022/04/27 05:37:24;;;;;;;17.93;11.73;;;4.50;99.90;;;;;;4970641;28;20291;-76
2022/04/27 05:40:11;;;;;;;18.47;11.13;;;4.50;99.90;;;;;;4970693;28;20306;-75
2022/04/27 05:42:55;;;;;;;17.63;11.73;;;4.60;99.90;;;;;;4974966;28;20190;-75
2022/04/27 05:45:40;;;;;;;16.93;11.53;;;4.60;99.90;;;;;;4975036;28;20230;-75
2022/04/27 05:48:24;;;;;;;19.07;12.13;;;4.70;99.90;;;;;;4969170;28;20207;-75
2022/04/27 05:51:09;;;;;;;20.37;12.70;;;4.80;99.90;;;;;;4977695;28;20220;-76
2022/04/27 05:53:53;;;;;;;16.90;12.27;;;4.80;99.90;;;;;;4972805;28;20616;-76
2022/04/27 05:56:37;;;;;;;15.83;11.50;;;4.90;99.90;;;;;;4974013;28;20197;-75
2022/04/27 05:59:21;;;;;;;18.60;12.23;;;5.00;99.90;;;;;;4974933;28;20204;-73
2022/04/27 06:02:05;;;;;;;17.60;12.13;;;5.10;99.90;;;;;;4985782;28;20658;-74
2022/04/27 06:04:49;;;;;;;20.50;12.77;;;5.20;99.90;;;;;;4971646;28;20242;-74
2022/04/27 06:07:35;;;;;;;19.47;11.73;;;5.20;99.90;;;;;;4974359;28;20212;-74
2022/04/27 06:10:20;;;;;;;16.10;11.77;;;5.30;99.90;;;;;;4974286;28;20223;-74
2022/04/27 06:13:05;;;;;;;21.00;12.10;;;5.40;99.90;;;;;;4983703;28;20191;-74
2022/04/27 06:15:50;;;;;;;17.00;10.93;;;5.50;99.90;;;;;;4966425;28;20200;-74
2022/04/27 06:18:34;;;;;;;17.47;10.33;;;5.60;99.90;;;;;;4971438;28;20197;-74
2022/04/27 06:21:18;;;;;;;16.10;10.50;;;5.70;99.90;;;;;;4971516;28;20346;-74
2022/04/27 06:24:05;;;;;;;15.40;10.47;;;5.80;99.90;;;;;;4973659;28;20216;-74
2022/04/27 06:26:49;;;;;;;14.50;9.40;;;5.90;99.90;;;;;;4966487;28;20209;-73
2022/04/27 06:29:33;;;;;;;20.73;9.77;;;6.00;99.90;;;;;;4971236;28;20178;-75
2022/04/27 06:32:17;;;;;;;16.67;9.90;;;6.10;99.90;;;;;;4977362;28;20733;-74
2022/04/27 06:35:02;;;;;;;15.47;9.20;;;6.20;99.90;;;;;;4973584;28;20298;-75
2022/04/27 06:37:46;;;;;;;17.97;9.17;;;6.30;99.90;;;;;;4982740;28;20197;-73
2022/04/27 06:40:29;;;;;;;20.03;9.10;;;6.40;99.90;;;;;;4991492;28;20219;-74
2022/04/27 06:43:14;;;;;;;15.80;8.80;;;6.50;99.90;;;;;;4993069;28;20173;-76
2022/04/27 06:45:59;;;;;;;13.20;8.00;;;6.50;99.90;;;;;;4993057;28;20181;-73
2022/04/27 06:48:45;;;;;;;15.77;9.10;;;6.60;99.90;;;;;;4968008;28;20226;-74
2022/04/27 06:51:29;;;;;;;15.90;7.90;;;6.70;99.90;;;;;;4961436;28;20221;-73
2022/04/27 06:54:13;;;;;;;14.90;7.70;;;6.80;99.90;;;;;;4973509;28;20189;-74
2022/04/27 06:56:57;;;;;;;12.63;7.97;;;6.90;99.90;;;;;;4981376;28;20310;-73
2022/04/27 06:59:41;;;;;;;17.43;7.90;;;7.10;99.90;;;;;;4954151;29;20218;-74
2022/04/27 07:02:27;;;;;;;13.53;6.53;;;7.20;99.90;;;;;;4971362;28;20681;-74
2022/04/27 07:05:17;;;;;;;8.90;6.57;;;7.30;99.90;;;;;;4981458;28;20197;-74
2022/04/27 07:08:01;;;;;;;14.17;6.50;;;7.40;99.90;;;;;;4972881;28;20228;-74
2022/04/27 07:10:45;;;;;;;10.40;6.80;;;7.50;99.90;;;;;;4973265;28;20212;-75
2022/04/27 07:13:29;;;;;;;9.87;6.50;;;7.60;99.90;;;;;;4985608;28;20265;-74
2022/04/27 07:16:13;;;;;;;13.73;5.97;;;7.70;99.90;;;;;;4970067;28;20206;-74
2022/04/27 07:18:58;;;;;;;12.03;5.17;;;7.80;99.90;;;;;;4971954;28;20241;-74
2022/04/27 07:21:42;;;;;;;11.50;5.10;;;7.90;99.90;;;;;;4964662;28;20181;-74
2022/04/27 07:24:26;;;;;;;7.37;4.70;;;8.00;99.90;;;;;;4972320;28;20736;-74
2022/04/27 07:27:10;;;;;;;5.47;3.30;;;8.10;99.90;;;;;;4972039;28;20205;-74
2022/04/27 07:29:54;;;;;;;5.80;3.80;;;8.20;99.90;;;;;;4971792;28;20213;-74
2022/04/27 07:32:39;;;;;;;6.03;3.40;;;8.40;99.90;;;;;;4971673;28;20526;-74
2022/04/27 07:35:23;;;;;;;6.07;3.63;;;8.50;99.90;;;;;;4980649;28;20185;-74
2022/04/27 07:38:07;;;;;;;7.30;3.53;;;8.50;99.90;;;;;;4980007;28;20193;-74
2022/04/27 07:40:51;;;;;;;9.77;4.80;;;8.50;99.90;;;;;;4981613;28;20225;-75
2022/04/27 07:43:35;;;;;;;7.47;4.00;;;8.60;99.90;;;;;;4972438;28;20213;-75
2022/04/27 07:46:20;;;;;;;7.77;4.80;;;8.60;99.90;;;;;;4972939;28;20281;-76
2022/04/27 07:49:04;;;;;;;6.20;4.73;;;8.70;99.90;;;;;;4972985;28;20240;-74
2022/04/27 07:51:49;;;;;;;9.00;3.90;;;8.70;99.90;;;;;;4959905;28;20186;-74
2022/04/27 07:54:34;;;;;;;7.47;4.40;;;8.70;99.90;;;;;;4967344;28;20170;-74
2022/04/27 07:57:18;;;;;;;5.83;4.13;;;8.70;99.90;;;;;;4972481;28;20200;-74
2022/04/27 08:00:06;;;;;;;6.57;4.63;;;8.80;99.90;;;;;;4970445;28;20241;-76
2022/04/27 08:02:50;;;;;;;6.73;4.80;;;8.80;99.90;;;;;;4965121;28;20217;-75
2022/04/27 08:05:34;;;;;;;9.37;4.87;;;8.80;99.90;;;;;;4972363;28;20208;-75
2022/04/27 08:08:19;;;;;;;9.27;4.97;;;8.80;99.90;;;;;;4972407;28;20221;-75
2022/04/27 08:11:03;;;;;;;7.57;4.80;;;8.90;99.90;;;;;;4973136;28;20264;-75
2022/04/27 08:13:47;;;;;;;4.63;3.80;;;8.90;99.90;;;;;;4967442;28;20277;-75
2022/04/27 08:16:31;;;;;;;13.67;4.73;;;8.90;99.90;;;;;;4981384;28;20177;-76
2022/04/27 08:19:16;;;;;;;6.73;5.03;;;9.00;99.90;;;;;;4990624;28;20207;-75
2022/04/27 08:22:02;;;;;;;11.13;5.00;;;9.10;99.90;;;;;;4953045;29;20725;-75
2022/04/27 08:24:46;;;;;;;8.33;4.50;;;9.10;99.90;;;;;;4984604;28;20224;-75
2022/04/27 08:27:30;;;;;;;8.23;4.50;;;9.20;99.90;;;;;;4972450;28;20240;-76
2022/04/27 08:30:14;;;;;;;7.30;4.67;;;9.20;99.90;;;;;;4972756;28;20209;-76
2022/04/27 08:33:00;;;;;;;6.00;4.50;;;9.10;99.90;;;;;;4974093;28;20207;-76
2022/04/27 08:35:45;;;;;;;6.90;4.67;;;9.20;99.90;;;;;;4972762;28;20189;-75
2022/04/27 08:38:30;;;;;;;9.63;4.37;;;9.20;99.90;;;;;;4973155;28;20245;-76
2022/04/27 08:41:15;;;;;;;10.63;4.60;;;9.30;99.90;;;;;;4969518;28;20261;-76
2022/04/27 08:43:59;;;;;;;7.03;4.33;;;9.40;99.90;;;;;;4954945;29;20410;-76
2022/04/27 08:46:44;;;;;;;7.00;4.07;;;9.50;99.90;;;;;;4957185;29;20198;-76
2022/04/27 08:49:33;;;;;;;7.87;4.07;;;9.70;99.90;;;;;;4980953;28;20225;-76
2022/04/27 08:52:19;;;;;;;8.20;4.17;;;9.80;99.90;;;;;;4973880;28;20201;-76
2022/04/27 08:55:04;;;;;;;5.87;3.57;;;9.90;99.90;;;;;;4967926;28;20540;-76
2022/04/27 08:57:49;;;;;;;5.97;4.50;;;10.00;99.90;;;;;;4953873;29;20178;-76
2022/04/27 09:00:34;;;;;;;5.60;3.60;;;10.00;99.90;;;;;;4953124;29;20230;-76
2022/04/27 09:03:28;;;;;;;7.20;3.37;;;10.10;99.90;;;;;;4964885;28;20615;-76
2022/04/27 09:06:15;;;;;;;5.20;3.10;;;10.10;99.90;;;;;;4976582;28;20186;-76
2022/04/27 09:09:00;;;;;;;4.60;2.90;;;10.20;99.90;;;;;;4971990;28;20258;-76
2022/04/27 09:11:51;;;;;;;7.73;3.60;;;10.20;99.90;;;;;;4954949;28;20217;-77
2022/04/27 09:14:37;;;;;;;6.97;3.00;;;10.20;99.90;;;;;;4974946;28;20220;-76
2022/04/27 09:23:37;;;;;;;3.97;3.00;;;10.10;99.90;;;;;;4977137;28;20248;-77
2022/04/27 09:26:22;;;;;;;6.43;3.10;;;10.20;99.90;;;;;;4961660;28;20204;-76
2022/04/27 09:29:08;;;;;;;7.07;3.40;;;10.30;99.90;;;;;;4985449;28;20188;-77
2022/04/27 09:31:56;;;;;;;7.57;3.30;;;10.30;99.90;;;;;;4992930;28;20209;-77
2022/04/27 09:34:48;;;;;;;6.70;3.23;;;10.40;99.90;;;;;;4986589;28;20300;-77
2022/04/27 09:37:43;;;;;;;4.77;3.47;;;10.50;99.90;;;;;;4975085;28;20252;-77
2022/04/27 09:40:46;;;;;;;6.77;3.87;;;10.60;99.90;;;;;;4956671;29;20262;-77
2022/04/27 09:43:46;;;;;;;5.67;3.23;;;10.60;99.90;;;;;;4968174;28;20221;-76
2022/04/27 09:46:31;;;;;;;12.73;3.67;;;10.60;99.90;;;;;;4977374;28;20220;-77
2022/04/27 09:49:16;;;;;;;5.73;3.50;;;10.70;99.90;;;;;;4978225;28;20202;-77
2022/04/27 09:52:02;;;;;;;8.10;3.53;;;10.90;99.90;;;;;;4977625;28;20193;-77
2022/04/27 09:54:48;;;;;;;6.67;3.60;;;11.00;99.90;;;;;;4977496;28;20229;-77
2022/04/27 09:57:38;;;;;;;8.00;3.50;;;11.10;99.90;;;;;;4978251;28;20173;-77
2022/04/27 10:00:24;;;;;;;3.87;3.20;;;11.20;99.90;;;;;;4976205;28;20628;-77
2022/04/27 10:03:14;;;;;;;6.60;3.33;;;11.20;99.90;;;;;;4979230;28;20199;-77
2022/04/27 10:05:59;;;;;;;4.97;3.53;;;11.40;99.90;;;;;;4971748;28;20202;-77
2022/04/27 10:08:44;;;;;;;5.03;2.90;;;11.40;99.90;;;;;;4977845;28;20240;-77
2022/04/27 10:11:31;;;;;;;6.77;2.77;;;11.40;99.90;;;;;;4986655;28;20260;-76
2022/04/27 10:14:16;;;;;;;4.50;2.87;;;11.50;99.90;;;;;;4979095;28;20193;-77
2022/04/27 10:17:00;;;;;;;6.37;3.43;;;11.60;99.90;;;;;;4975268;28;20273;-76
2022/04/27 10:19:50;;;;;;;4.67;3.27;;;11.70;99.90;;;;;;4968972;28;20284;-76
2022/04/27 10:22:35;;;;;;;8.63;3.40;;;11.70;99.90;;;;;;4957547;29;20222;-76
2022/04/27 10:25:19;;;;;;;6.90;3.23;;;11.80;99.90;;;;;;4957280;29;20201;-77
2022/04/27 10:28:18;;;;;;;6.03;3.43;;;11.80;99.90;;;;;;4957781;29;20270;-76
2022/04/27 10:31:08;;;;;;;6.50;3.63;;;11.80;99.90;;;;;;4957535;28;20251;-76
2022/04/27 10:33:56;;;;;;;4.90;3.10;;;11.80;99.90;;;;;;4975483;28;20264;-76
2022/04/27 10:36:40;;;;;;;6.27;3.60;;;11.90;99.90;;;;;;4994249;28;20189;-76
2022/04/27 10:39:29;;;;;;;4.67;3.40;;;11.90;99.90;;;;;;4995307;28;20184;-76
2022/04/27 10:42:19;;;;;;;7.17;3.53;;;11.90;99.90;;;;;;4981736;28;20185;-76
2022/04/27 10:45:04;;;;;;;4.83;3.90;;;11.90;99.90;;;;;;4970344;28;20234;-76
2022/04/27 10:47:49;;;;;;;5.83;3.40;;;12.00;99.90;;;;;;4969067;28;20205;-76
2022/04/27 10:50:35;;;;;;;5.97;3.67;;;12.10;99.90;;;;;;4956427;29;20213;-76
2022/04/27 10:53:38;;;;;;;3.73;3.43;;;12.10;99.90;;;;;;4957389;29;20189;-75
2022/04/27 10:56:26;;;;;;;7.90;3.70;;;12.10;99.90;;;;;;4958512;29;20193;-76
2022/04/27 10:59:42;;;;;;;6.20;3.37;;;12.10;99.90;;;;;;4956252;28;20194;-77
2022/04/27 11:02:41;;;;;;;6.97;3.50;;;12.10;99.90;;;;;;4965730;28;20549;-76
2022/04/27 11:05:25;;;;;;;7.20;3.40;;;12.20;99.90;;;;;;4981158;28;20197;-76
2022/04/27 11:08:46;;;;;;;5.10;3.30;;;12.20;99.90;;;;;;4981362;28;20208;-77
2022/04/27 11:11:31;;;;;;;5.17;3.47;;;12.30;99.90;;;;;;4994367;28;20559;-76
2022/04/27 11:14:16;;;;;;;7.67;3.40;;;12.40;99.90;;;;;;4976413;28;20214;-77
2022/04/27 11:17:01;;;;;;;10.03;3.53;;;12.50;99.90;;;;;;4975919;28;20200;-76
2022/04/27 11:19:45;;;;;;;5.70;4.00;;;12.60;99.90;;;;;;4974745;28;20217;-76
2022/04/27 11:22:39;;;;;;;6.33;3.77;;;12.70;99.90;;;;;;4973920;28;20241;-76
2022/04/27 11:25:32;;;;;;;9.10;3.93;;;12.60;99.90;;;;;;4959885;28;20208;-76
2022/04/27 11:28:17;;;;;;;5.97;3.60;;;12.50;99.90;;;;;;4981731;28;20221;-76
2022/04/27 11:31:02;;;;;;;7.17;3.83;;;12.40;99.90;;;;;;4968757;28;20265;-77
2022/04/27 11:33:47;;;;;;;6.40;3.70;;;12.40;99.90;;;;;;4967284;28;20193;-77
2022/04/27 11:36:31;;;;;;;5.90;3.50;;;12.40;99.90;;;;;;4954688;29;20201;-76
2022/04/27 11:39:23;;;;;;;4.67;3.70;;;12.40;99.90;;;;;;4955737;29;20250;-76
2022/04/27 11:42:12;;;;;;;7.97;3.63;;;12.50;99.90;;;;;;4974122;28;20206;-77
2022/04/27 11:45:00;;;;;;;9.53;3.47;;;12.40;99.90;;;;;;4968477;28;20193;-77
2022/04/27 11:47:44;;;;;;;7.23;3.53;;;12.40;99.90;;;;;;4975506;28;20221;-76
2022/04/27 11:50:34;;;;;;;9.70;3.70;;;12.50;99.90;;;;;;4974768;28;20712;-76
2022/04/27 11:53:19;;;;;;;5.20;4.30;;;12.70;99.90;;;;;;4975228;28;20230;-76
2022/04/27 11:56:03;;;;;;;4.90;3.93;;;12.80;99.90;;;;;;4968949;28;20241;-76
2022/04/27 11:58:48;;;;;;;6.87;3.90;;;12.90;99.90;;;;;;4967238;28;20278;-76
2022/04/27 12:01:32;;;;;;;7.80;3.73;;;12.90;99.90;;;;;;4973778;28;20214;-76
2022/04/27 12:04:16;;;;;;;4.97;3.90;;;13.00;99.90;;;;;;4973283;28;20248;-76
2022/04/27 12:07:01;;;;;;;5.30;3.93;;;13.00;99.90;;;;;;4992836;28;20210;-77
2022/04/27 12:09:59;;;;;;;8.97;3.97;;;13.00;99.90;;;;;;4989862;28;20237;-77
2022/04/27 12:12:43;;;;;;;6.93;3.77;;;13.00;99.90;;;;;;4969979;28;20204;-76
2022/04/27 12:15:28;;;;;;;7.03;3.73;;;13.00;99.90;;;;;;4971939;28;20185;-76
2022/04/27 12:18:17;;;;;;;6.07;3.63;;;13.10;99.90;;;;;;4973246;28;20189;-76
2022/04/27 12:21:19;;;;;;;7.93;4.27;;;13.10;99.90;;;;;;4974183;28;20288;-76
2022/04/27 12:24:17;;;;;;;3.97;3.57;;;13.10;99.90;;;;;;4968547;28;20570;-76
2022/04/27 12:27:15;;;;;;;8.87;4.13;;;13.00;99.90;;;;;;4968137;28;20223;-77
2022/04/27 12:30:06;;;;;;;5.57;3.73;;;13.10;99.90;;;;;;4974924;28;20212;-76
2022/04/27 12:32:51;;;;;;;6.27;3.57;;;13.10;99.90;;;;;;4973635;28;20196;-76
2022/04/27 12:39:08;;;;;;;7.57;4.03;;;13.40;99.90;;;;;;4969493;28;20228;-76
2022/04/27 12:42:07;;;;;;;4.23;3.27;;;13.40;99.90;;;;;;4974578;28;20673;-76
2022/04/27 12:44:51;;;;;;;5.70;3.47;;;13.50;99.90;;;;;;4973476;28;20241;-76
2022/04/27 12:47:46;;;;;;;6.70;4.03;;;13.50;99.90;;;;;;4975526;28;20229;-76
2022/04/27 12:50:45;;;;;;;5.67;3.80;;;13.50;99.90;;;;;;4976701;28;20213;-77
2022/04/27 12:53:30;;;;;;;4.77;3.70;;;13.50;99.90;;;;;;4978813;28;20197;-77
2022/04/27 12:56:19;;;;;;;7.73;3.90;;;13.50;99.90;;;;;;4976286;28;20201;-77
2022/04/27 12:59:04;;;;;;;5.33;4.03;;;13.50;99.90;;;;;;4974322;28;20344;-76
2022/04/27 13:02:01;;;;;;;9.87;5.10;;;13.50;99.90;;;;;;4975929;28;20253;-76
2022/04/27 13:04:46;;;;;;;7.90;3.53;;;13.40;99.90;;;;;;4974229;28;20269;-77
2022/04/27 13:07:31;;;;;;;4.90;3.70;;;13.40;99.90;;;;;;4976443;28;20246;-76
2022/04/27 13:13:19;;;;;;;5.77;4.00;;;13.50;99.90;;;;;;4988248;28;20185;-77
2022/04/27 13:16:04;;;;;;;6.07;3.80;;;13.50;99.90;;;;;;4996682;28;20278;-77
2022/04/27 13:18:48;;;;;;;7.17;3.93;;;13.50;99.90;;;;;;4995696;28;20704;-75
2022/04/27 13:21:32;;;;;;;7.70;3.90;;;13.60;99.90;;;;;;4979181;28;20273;-77
2022/04/27 13:24:17;;;;;;;7.23;3.40;;;13.70;99.90;;;;;;4977334;28;20204;-76
2022/04/27 13:27:01;;;;;;;5.77;3.77;;;13.80;99.90;;;;;;4978294;28;20228;-76
2022/04/27 13:29:45;;;;;;;6.43;3.60;;;13.90;99.90;;;;;;4978382;28;20208;-76
2022/04/27 13:32:30;;;;;;;4.43;3.13;;;14.00;99.90;;;;;;4987114;28;20254;-76
2022/04/27 13:35:15;;;;;;;9.23;3.97;;;14.00;99.90;;;;;;4984476;28;20553;-76
2022/04/27 13:37:59;;;;;;;6.10;3.30;;;13.90;99.90;;;;;;4978003;28;20209;-76
2022/04/27 13:40:46;;;;;;;6.03;3.67;;;13.90;99.90;;;;;;4978527;28;20280;-76
2022/04/27 13:43:31;;;;;;;6.67;3.50;;;13.80;99.90;;;;;;4979180;28;20210;-77
2022/04/27 13:46:15;;;;;;;5.20;3.50;;;13.80;99.90;;;;;;4986043;28;20185;-77
2022/04/27 13:49:02;;;;;;;5.00;3.80;;;13.90;99.90;;;;;;4977340;28;20212;-76
2022/04/27 13:51:49;;;;;;;8.33;3.80;;;13.90;99.90;;;;;;4970274;28;20209;-76
2022/04/27 13:54:33;;;;;;;5.93;3.40;;;13.80;99.90;;;;;;4980836;28;20192;-77
2022/04/27 13:57:17;;;;;;;8.33;4.03;;;13.90;99.90;;;;;;4981494;28;20197;-76
2022/04/27 14:00:03;;;;;;;8.23;3.80;;;14.00;99.90;;;;;;4977500;28;20225;-76
2022/04/27 14:02:47;;;;;;;6.87;4.03;;;14.00;99.90;;;;;;4975728;28;20205;-76
2022/04/27 14:05:32;;;;;;;9.60;3.87;;;14.00;99.90;;;;;;4984296;28;20228;-77
2022/04/27 14:08:16;;;;;;;7.27;3.47;;;14.00;99.90;;;;;;4996352;28;20634;-77
2022/04/27 14:11:00;;;;;;;8.03;3.67;;;14.00;99.90;;;;;;4997239;28;20203;-77
2022/04/27 14:13:44;;;;;;;6.27;3.80;;;14.10;99.90;;;;;;4995688;28;20287;-77
2022/04/27 14:19:34;;;;;;;4.47;2.90;;;14.20;99.90;;;;;;4977533;28;20585;-77
2022/04/27 14:22:19;;;;;;;8.73;3.33;;;14.20;99.90;;;;;;4974597;28;20174;-77
2022/04/27 14:25:03;;;;;;;6.47;3.53;;;14.20;99.90;;;;;;4968047;28;20568;-77
2022/04/27 14:27:49;;;;;;;7.03;3.00;;;14.20;99.90;;;;;;4954971;29;20233;-77
2022/04/27 14:30:34;;;;;;;5.33;3.07;;;14.30;99.90;;;;;;4983884;28;20285;-77
2022/04/27 14:33:20;;;;;;;4.67;3.37;;;14.30;99.90;;;;;;4982612;28;20224;-77
2022/04/27 14:36:04;;;;;;;5.57;3.20;;;14.40;99.90;;;;;;4985309;28;20246;-77
2022/04/27 14:38:48;;;;;;;5.83;3.90;;;14.30;99.90;;;;;;4957175;29;20230;-77
2022/04/27 14:41:32;;;;;;;6.23;3.70;;;14.30;99.90;;;;;;4982787;28;20220;-77
2022/04/27 14:44:17;;;;;;;7.30;4.17;;;14.20;99.90;;;;;;4980138;28;20217;-77
2022/04/27 14:47:01;;;;;;;10.67;4.30;;;14.20;99.90;;;;;;4976494;28;20188;-76
2022/04/27 14:49:45;;;;;;;12.00;4.30;;;14.20;99.90;;;;;;4988479;28;20208;-77
2022/04/27 14:52:31;;;;;;;5.43;4.13;;;14.20;99.90;;;;;;4996442;28;20223;-76
2022/04/27 14:55:17;;;;;;;8.60;4.93;;;14.20;99.90;;;;;;4996078;28;20172;-77